createdAt,value
2023-04-15T00:01:21.388Z,7.69
2023-04-15T00:03:48.299Z,7.64
2023-04-15T00:06:14.887Z,7.68
2023-04-15T00:08:41.898Z,7.62
2023-04-15T00:11:08.479Z,7.66
2023-04-15T00:13:35.082Z,7.66
2023-04-15T00:16:02.291Z,7.64
2023-04-15T00:18:29.806Z,7.59
2023-04-15T00:20:59.116Z,7.60
2023-04-15T00:23:28.840Z,7.54
2023-04-15T00:25:55.673Z,7.50
2023-04-15T00:28:34.635Z,7.56
2023-04-15T00:31:01.228Z,7.57
2023-04-15T00:33:31.216Z,7.52
2023-04-15T00:35:59.303Z,7.53
2023-04-15T00:38:25.824Z,7.59
2023-04-15T00:40:53.346Z,7.52
2023-04-15T00:43:20.166Z,7.54
2023-04-15T00:45:47.392Z,7.59
2023-04-15T00:48:14.390Z,7.63
2023-04-15T00:50:40.897Z,7.58
2023-04-15T00:53:07.367Z,7.55
2023-04-15T00:55:33.964Z,7.57
2023-04-15T00:58:00.505Z,7.56
2023-04-15T01:00:27.387Z,7.49
2023-04-15T01:02:53.987Z,7.48
2023-04-15T01:05:23.238Z,7.42
2023-04-15T01:07:53.004Z,7.48
2023-04-15T01:10:19.530Z,7.50
2023-04-15T01:12:46.002Z,7.52
2023-04-15T01:15:12.511Z,7.50
2023-04-15T01:17:41.508Z,7.46
2023-04-15T01:20:11.569Z,7.42
2023-04-15T01:22:38.390Z,7.38
2023-04-15T01:25:12.196Z,7.33
2023-04-15T01:27:42.296Z,7.27
2023-04-15T01:30:12.954Z,7.35
2023-04-15T01:32:39.707Z,7.34
2023-04-15T01:35:06.648Z,7.35
2023-04-15T01:37:33.712Z,7.31
2023-04-15T01:40:00.277Z,7.28
2023-04-15T01:42:27.741Z,7.34
2023-04-15T01:44:54.785Z,7.41
2023-04-15T01:47:21.628Z,7.42
2023-04-15T01:49:48.246Z,7.37
2023-04-15T01:52:18.389Z,7.33
2023-04-15T01:54:44.972Z,7.30
2023-04-15T01:57:14.770Z,7.27
2023-04-15T01:59:42.200Z,7.30
2023-04-15T02:02:08.782Z,7.29
2023-04-15T02:04:35.218Z,7.25
2023-04-15T02:07:01.807Z,7.23
2023-04-15T02:09:32.833Z,7.28
2023-04-15T02:11:59.516Z,7.24
2023-04-15T02:14:26.152Z,7.21
2023-04-15T02:16:55.139Z,7.22
2023-04-15T02:19:25.155Z,7.27
2023-04-15T02:21:51.639Z,7.26
2023-04-15T02:24:20.113Z,7.30
2023-04-15T02:26:46.795Z,7.37
2023-04-15T02:29:13.279Z,7.32
2023-04-15T02:31:41.993Z,7.35
2023-04-15T02:34:08.449Z,7.32
2023-04-15T02:36:34.966Z,7.28
2023-04-15T02:39:01.863Z,7.30
2023-04-15T02:41:32.403Z,7.22
2023-04-15T02:43:58.873Z,7.17
2023-04-15T02:46:25.518Z,7.24
2023-04-15T02:48:53.682Z,7.20
2023-04-15T02:51:22.456Z,7.18
2023-04-15T02:53:49.874Z,7.16
2023-04-15T02:56:17.328Z,7.12
2023-04-15T02:58:45.754Z,7.08
2023-04-15T03:01:12.560Z,7.07
2023-04-15T03:03:39.286Z,7.18
2023-04-15T03:06:06.091Z,7.10
2023-04-15T03:08:32.659Z,7.15
2023-04-15T03:11:00.867Z,7.12
2023-04-15T03:13:27.465Z,7.16
2023-04-15T03:15:53.998Z,7.07
2023-04-15T03:18:20.536Z,7.13
2023-04-15T03:20:47.054Z,7.17
2023-04-15T03:23:13.622Z,7.14
2023-04-15T03:25:40.135Z,7.08
2023-04-15T03:28:06.650Z,7.06
2023-04-15T03:30:33.196Z,7.13
2023-04-15T03:32:59.793Z,7.11
2023-04-15T03:35:28.230Z,7.09
2023-04-15T03:37:54.710Z,7.10
2023-04-15T03:40:21.681Z,7.10
2023-04-15T03:42:48.220Z,7.09
2023-04-15T03:45:14.738Z,7.09
2023-04-15T03:47:41.527Z,7.15
2023-04-15T03:50:08.545Z,7.15
2023-04-15T03:52:35.049Z,7.13
2023-04-15T03:55:01.660Z,7.08
2023-04-15T03:57:28.217Z,7.09
2023-04-15T03:59:54.711Z,7.09
2023-04-15T04:02:22.928Z,7.05
2023-04-15T04:04:49.525Z,7.00
2023-04-15T04:07:17.222Z,7.07
2023-04-15T04:09:44.160Z,7.02
2023-04-15T04:12:11.635Z,7.03
2023-04-15T04:14:38.096Z,7.02
2023-04-15T04:17:04.617Z,7.01
2023-04-15T04:19:31.349Z,6.97
2023-04-15T04:21:57.909Z,6.93
2023-04-15T04:24:24.484Z,7.02
2023-04-15T04:26:51.078Z,6.96
2023-04-15T04:29:17.601Z,7.00
2023-04-15T04:31:44.087Z,6.99
2023-04-15T04:34:10.849Z,7.04
2023-04-15T04:36:37.307Z,7.00
2023-04-15T04:39:04.107Z,7.03
2023-04-15T04:41:30.740Z,7.00
2023-04-15T04:43:57.239Z,6.97
2023-04-15T04:46:23.946Z,7.01
2023-04-15T04:48:50.803Z,7.04
2023-04-15T04:51:18.925Z,7.03
2023-04-15T04:53:45.581Z,6.99
2023-04-15T04:56:12.151Z,7.01
2023-04-15T04:58:38.624Z,7.04
2023-04-15T05:01:05.190Z,7.05
2023-04-15T05:03:31.810Z,6.98
2023-04-15T05:05:58.314Z,6.97
2023-04-15T05:08:24.744Z,6.95
2023-04-15T05:10:54.086Z,6.92
2023-04-15T05:13:21.610Z,6.93
2023-04-15T05:15:48.143Z,6.94
2023-04-15T05:18:14.671Z,6.95
2023-04-15T05:20:41.500Z,6.95
2023-04-15T05:23:08.130Z,6.94
2023-04-15T05:25:34.713Z,6.92
2023-04-15T05:28:01.381Z,6.85
2023-04-15T05:30:27.871Z,6.86
2023-04-15T05:32:54.378Z,6.87
2023-04-15T05:35:20.877Z,6.91
2023-04-15T05:37:47.464Z,6.87
2023-04-15T05:40:14.445Z,6.90
2023-04-15T05:42:41.331Z,6.91
2023-04-15T05:45:12.597Z,6.97
2023-04-15T05:47:39.064Z,6.93
2023-04-15T05:50:06.595Z,6.93
2023-04-15T05:52:33.058Z,6.95
2023-04-15T05:54:59.554Z,6.95
2023-04-15T05:57:26.312Z,6.99
2023-04-15T05:59:52.876Z,6.99
2023-04-15T06:02:19.620Z,7.03
2023-04-15T06:04:46.222Z,7.01
2023-04-15T06:07:12.728Z,7.01
2023-04-15T06:09:39.204Z,6.99
2023-04-15T06:12:06.834Z,6.99
2023-04-15T06:14:33.368Z,6.97
2023-04-15T06:16:59.993Z,6.99
2023-04-15T06:19:26.427Z,7.05
2023-04-15T06:21:52.982Z,7.00
2023-04-15T06:24:19.500Z,6.99
2023-04-15T06:26:46.001Z,6.96
2023-04-15T06:29:15.463Z,6.95
2023-04-15T06:31:41.994Z,6.96
2023-04-15T06:34:08.470Z,7.00
2023-04-15T06:36:34.983Z,7.02
2023-04-15T06:39:02.083Z,6.99
2023-04-15T06:41:28.863Z,7.03
2023-04-15T06:43:55.321Z,7.03
2023-04-15T06:46:22.285Z,7.07
2023-04-15T06:48:48.920Z,7.09
2023-04-15T06:51:15.542Z,7.12
2023-04-15T06:53:43.824Z,7.07
2023-04-15T06:56:10.543Z,7.04
2023-04-15T06:58:37.165Z,7.05
2023-04-15T07:01:04.249Z,7.06
2023-04-15T07:03:34.313Z,7.02
2023-04-15T07:06:01.717Z,6.99
2023-04-15T07:08:28.145Z,7.03
2023-04-15T07:10:54.637Z,7.09
2023-04-15T07:13:21.103Z,7.06
2023-04-15T07:15:47.572Z,7.04
2023-04-15T07:18:14.103Z,7.08
2023-04-15T07:20:40.591Z,7.12
2023-04-15T07:23:07.070Z,7.14
2023-04-15T07:25:33.518Z,7.16
2023-04-15T07:28:00.316Z,7.20
2023-04-15T07:30:26.774Z,7.17
2023-04-15T07:32:53.281Z,7.17
2023-04-15T07:35:21.406Z,7.17
2023-04-15T07:37:48.433Z,7.10
2023-04-15T07:40:16.143Z,7.12
2023-04-15T07:42:43.545Z,7.15
2023-04-15T07:45:12.260Z,7.15
2023-04-15T07:47:38.844Z,7.17
2023-04-15T07:50:06.845Z,7.18
2023-04-15T07:52:39.098Z,7.23
2023-04-15T07:55:10.741Z,7.24
2023-04-15T07:57:37.530Z,7.23
2023-04-15T08:00:07.544Z,7.28
2023-04-15T08:02:36.908Z,7.31
2023-04-15T08:05:05.133Z,7.37
2023-04-15T08:07:31.832Z,7.31
2023-04-15T08:09:58.296Z,7.41
2023-04-15T08:12:28.011Z,7.36
2023-04-15T08:14:55.390Z,7.42
2023-04-15T08:17:22.047Z,7.32
2023-04-15T08:19:48.538Z,7.36
2023-04-15T08:22:18.100Z,7.38
2023-04-15T08:24:45.190Z,7.38
2023-04-15T08:27:11.724Z,7.39
2023-04-15T08:29:38.468Z,7.36
2023-04-15T08:32:06.738Z,7.39
2023-04-15T08:34:33.629Z,7.42
2023-04-15T08:37:00.157Z,7.44
2023-04-15T08:39:27.253Z,7.53
2023-04-15T08:42:09.412Z,7.54
2023-04-15T08:44:36.972Z,7.56
2023-04-15T08:47:07.647Z,7.50
2023-04-15T08:49:39.085Z,7.44
2023-04-15T08:52:06.187Z,7.40
2023-04-15T08:54:34.448Z,7.36
2023-04-15T08:57:02.479Z,7.41
2023-04-15T08:59:31.024Z,7.40
2023-04-15T09:01:58.313Z,7.42
2023-04-15T09:04:24.817Z,7.45
2023-04-15T09:06:52.219Z,7.52
2023-04-15T09:09:18.789Z,7.54
2023-04-15T09:11:45.424Z,7.51
2023-04-15T09:14:12.287Z,7.49
2023-04-15T09:16:58.885Z,7.58
2023-04-15T09:19:25.771Z,7.63
2023-04-15T09:21:59.245Z,7.65
2023-04-15T09:24:33.740Z,7.68
2023-04-15T09:27:00.518Z,7.69
2023-04-15T09:29:27.089Z,7.67
2023-04-15T09:31:53.644Z,7.61
2023-04-15T09:34:20.374Z,7.60
2023-04-15T09:36:56.928Z,7.69
2023-04-15T09:39:23.509Z,7.66
2023-04-15T09:42:08.620Z,7.61
2023-04-15T09:44:35.407Z,7.61
2023-04-15T09:47:02.296Z,7.69
2023-04-15T09:49:30.659Z,7.69
2023-04-15T09:52:05.552Z,7.70
2023-04-15T09:54:34.955Z,7.67
2023-04-15T09:57:06.224Z,7.65
2023-04-15T09:59:32.861Z,7.65
2023-04-15T10:02:00.041Z,7.67
2023-04-15T10:04:28.664Z,7.69
2023-04-15T10:06:55.818Z,7.70
2023-04-15T10:09:22.421Z,7.64
2023-04-15T10:11:50.328Z,7.65
2023-04-15T10:14:18.403Z,7.63
2023-04-15T10:16:49.027Z,7.62
2023-04-15T10:19:20.159Z,7.62
2023-04-15T10:21:47.297Z,7.65
2023-04-15T10:24:14.528Z,7.62
2023-04-15T10:26:41.414Z,7.63
2023-04-15T10:29:11.579Z,7.65
2023-04-15T10:31:42.028Z,7.65
2023-04-15T10:34:09.555Z,7.66
2023-04-15T10:36:36.337Z,7.68
2023-04-15T10:39:02.841Z,7.67
2023-04-15T10:41:33.400Z,7.71
2023-04-15T10:43:59.998Z,7.76
2023-04-15T10:46:38.740Z,7.73
2023-04-15T10:49:10.895Z,7.73
2023-04-15T10:51:51.249Z,7.73
2023-04-15T10:54:32.684Z,7.78
2023-04-15T10:57:02.842Z,7.81
2023-04-15T10:59:58.801Z,7.78
2023-04-15T11:02:52.579Z,7.77
2023-04-15T11:05:20.677Z,7.76
2023-04-15T11:07:49.017Z,7.77
2023-04-15T11:10:18.606Z,7.81
2023-04-15T11:12:45.563Z,7.78
2023-04-15T11:15:34.307Z,7.79
2023-04-15T11:18:17.060Z,7.82
2023-04-15T11:20:45.755Z,7.83
2023-04-15T11:23:14.349Z,7.80
2023-04-15T11:25:41.740Z,7.80
2023-04-15T11:28:08.319Z,7.84
2023-04-15T11:30:37.525Z,7.85
2023-04-15T11:33:06.231Z,7.85
2023-04-15T11:35:34.134Z,7.87
2023-04-15T11:38:10.170Z,7.82
2023-04-15T11:40:37.875Z,7.87
2023-04-15T11:43:14.127Z,7.90
2023-04-15T11:46:01.214Z,7.90
2023-04-15T11:48:29.766Z,7.94
2023-04-15T11:51:01.928Z,7.97
2023-04-15T11:53:44.767Z,7.98
2023-04-15T11:56:17.728Z,7.96
2023-04-15T11:58:46.347Z,7.98
2023-04-15T12:01:13.155Z,8.00
2023-04-15T12:03:51.571Z,8.01
2023-04-15T12:06:27.740Z,7.99
2023-04-15T12:09:13.968Z,7.99
2023-04-15T12:11:43.513Z,8.02
2023-04-15T12:14:12.864Z,8.02
2023-04-15T12:16:49.768Z,8.02
2023-04-15T12:19:24.331Z,8.03
2023-04-15T12:21:51.173Z,8.05
2023-04-15T12:24:23.698Z,8.09
2023-04-15T12:26:55.048Z,8.09
2023-04-15T12:29:26.631Z,8.10
2023-04-15T12:31:58.120Z,8.12
2023-04-15T12:34:36.402Z,8.15
2023-04-15T12:37:04.885Z,8.17
2023-04-15T12:39:37.389Z,8.21
2023-04-15T12:42:05.204Z,8.24
2023-04-15T12:44:33.123Z,8.26
2023-04-15T12:47:00.470Z,8.21
2023-04-15T12:49:29.810Z,8.26
2023-04-15T12:52:00.042Z,8.34
2023-04-15T12:54:27.134Z,8.26
2023-04-15T12:56:54.408Z,8.30
2023-04-15T12:59:21.629Z,8.26
2023-04-15T13:01:49.004Z,8.27
2023-04-15T13:04:16.435Z,8.30
2023-04-15T13:06:43.735Z,8.24
2023-04-15T13:09:10.244Z,8.27
2023-04-15T13:11:39.725Z,8.24
2023-04-15T13:14:08.624Z,8.29
2023-04-15T13:16:35.424Z,8.28
2023-04-15T13:19:03.879Z,8.26
2023-04-15T13:21:34.857Z,8.28
2023-04-15T13:24:01.774Z,8.34
2023-04-15T13:26:28.227Z,8.38
2023-04-15T13:28:54.746Z,8.38
2023-04-15T13:31:21.400Z,8.41
2023-04-15T13:33:47.951Z,8.44
2023-04-15T13:36:14.470Z,8.43
2023-04-15T13:38:40.990Z,8.47
2023-04-15T13:41:07.461Z,8.47
2023-04-15T13:43:34.377Z,8.45
2023-04-15T13:46:01.262Z,8.47
2023-04-15T13:48:28.502Z,8.46
2023-04-15T13:50:54.942Z,8.47
2023-04-15T13:53:21.525Z,8.47
2023-04-15T13:56:00.579Z,8.53
2023-04-15T13:58:27.060Z,8.56
2023-04-15T14:00:53.598Z,8.54
2023-04-15T14:03:20.206Z,8.57
2023-04-15T14:05:46.743Z,8.58
2023-04-15T14:08:13.440Z,8.64
2023-04-15T14:10:39.979Z,8.67
2023-04-15T14:13:06.448Z,8.66
2023-04-15T14:15:32.989Z,8.70
2023-04-15T14:17:59.473Z,8.74
2023-04-15T14:20:25.994Z,8.66
2023-04-15T14:22:52.471Z,8.63
2023-04-15T14:25:26.949Z,8.63
2023-04-15T14:27:59.775Z,8.62
2023-04-15T14:30:26.316Z,8.62
2023-04-15T14:32:52.762Z,8.62
2023-04-15T14:35:19.300Z,8.62
2023-04-15T14:37:45.735Z,8.61
2023-04-15T14:40:12.251Z,8.64
2023-04-15T14:42:38.724Z,8.62
2023-04-15T14:45:05.885Z,8.64
2023-04-15T14:47:32.413Z,8.64
2023-04-15T14:49:58.921Z,8.66
2023-04-15T14:52:25.406Z,8.67
2023-04-15T14:54:51.980Z,8.70
2023-04-15T14:57:18.450Z,8.68
2023-04-15T14:59:45.106Z,8.69
2023-04-15T15:02:12.985Z,8.70
2023-04-15T15:04:41.606Z,8.71
2023-04-15T15:07:08.090Z,8.74
2023-04-15T15:09:35.110Z,8.74
2023-04-15T15:12:01.947Z,8.74
2023-04-15T15:14:28.461Z,8.74
2023-04-15T15:16:54.946Z,8.76
2023-04-15T15:19:21.431Z,8.76
2023-04-15T15:21:47.912Z,8.75
2023-04-15T15:24:17.466Z,8.76
2023-04-15T15:26:43.948Z,8.76
2023-04-15T15:29:10.510Z,8.76
2023-04-15T15:31:37.306Z,8.76
2023-04-15T15:34:04.351Z,8.77
2023-04-15T15:36:31.626Z,8.78
2023-04-15T15:38:59.693Z,8.76
2023-04-15T15:41:26.480Z,8.77
2023-04-15T15:43:56.023Z,8.79
2023-04-15T15:46:24.215Z,8.77
2023-04-15T15:48:50.858Z,8.79
2023-04-15T15:51:17.399Z,8.81
2023-04-15T15:53:44.804Z,8.82
2023-04-15T15:56:11.455Z,8.84
2023-04-15T15:58:37.912Z,8.83
2023-04-15T16:01:04.441Z,8.86
2023-04-15T16:03:31.120Z,8.90
2023-04-15T16:05:57.713Z,8.99
2023-04-15T16:08:24.232Z,9.06
2023-04-15T16:10:50.984Z,9.29
2023-04-15T16:13:17.534Z,9.40
2023-04-15T16:15:44.168Z,9.37
2023-04-15T16:18:10.601Z,9.34
2023-04-15T16:20:38.516Z,9.35
2023-04-15T16:23:13.373Z,9.30
2023-04-15T16:25:41.473Z,9.30
2023-04-15T16:28:18.648Z,9.30
2023-04-15T16:30:51.896Z,9.30
2023-04-15T16:33:18.480Z,9.25
2023-04-15T16:35:44.919Z,9.27
2023-04-15T16:38:11.428Z,9.32
2023-04-15T16:40:38.110Z,9.28
2023-04-15T16:43:09.770Z,9.29
2023-04-15T16:45:36.216Z,9.32
2023-04-15T16:48:02.915Z,9.36
2023-04-15T16:50:29.633Z,9.36
2023-04-15T16:52:56.129Z,9.34
2023-04-15T16:55:22.707Z,9.34
2023-04-15T16:58:02.103Z,9.33
2023-04-15T17:00:31.760Z,9.37
2023-04-15T17:02:59.155Z,9.40
2023-04-15T17:05:27.503Z,9.40
2023-04-15T17:07:54.275Z,9.40
2023-04-15T17:10:21.026Z,9.42
2023-04-15T17:12:47.603Z,9.36
2023-04-15T17:15:14.091Z,9.36
2023-04-15T17:17:40.835Z,9.42
2023-04-15T17:20:07.751Z,9.43
2023-04-15T17:22:34.262Z,9.43
2023-04-15T17:25:00.888Z,9.40
2023-04-15T17:27:28.861Z,9.39
2023-04-15T17:29:55.495Z,9.41
2023-04-15T17:32:22.748Z,9.43
2023-04-15T17:34:51.385Z,9.42
2023-04-15T17:37:18.459Z,9.43
2023-04-15T17:39:45.291Z,9.45
2023-04-15T17:42:12.100Z,9.49
2023-04-15T17:44:38.650Z,9.55
2023-04-15T17:47:05.202Z,9.52
2023-04-15T17:49:34.071Z,9.54
2023-04-15T17:52:00.661Z,9.54
2023-04-15T17:54:27.193Z,9.51
2023-04-15T17:56:57.936Z,9.48
2023-04-15T17:59:24.423Z,9.48
2023-04-15T18:01:50.963Z,9.46
2023-04-15T18:04:17.631Z,9.43
2023-04-15T18:06:44.334Z,9.45
2023-04-15T18:09:11.323Z,9.41
2023-04-15T18:11:39.885Z,9.42
2023-04-15T18:14:09.942Z,9.41
2023-04-15T18:16:40.126Z,9.39
2023-04-15T18:19:06.770Z,9.40
2023-04-15T18:21:33.258Z,9.39
2023-04-15T18:23:59.743Z,9.35
2023-04-15T18:26:27.462Z,9.40
2023-04-15T18:28:55.114Z,9.42
2023-04-15T18:31:21.570Z,9.39
2023-04-15T18:33:48.134Z,9.38
2023-04-15T18:36:17.702Z,9.40
2023-04-15T18:38:45.981Z,9.37
2023-04-15T18:41:12.418Z,9.35
2023-04-15T18:43:38.911Z,9.41
2023-04-15T18:46:09.580Z,9.37
2023-04-15T18:48:36.096Z,9.35
2023-04-15T18:51:02.570Z,9.34
2023-04-15T18:53:29.084Z,9.37
2023-04-15T18:55:56.346Z,9.38
2023-04-15T18:58:22.868Z,9.35
2023-04-15T19:00:49.413Z,9.31
2023-04-15T19:03:15.919Z,9.35
2023-04-15T19:05:42.622Z,9.36
2023-04-15T19:08:09.158Z,9.37
2023-04-15T19:10:35.877Z,9.36
2023-04-15T19:13:04.142Z,9.43
2023-04-15T19:15:33.620Z,9.42
2023-04-15T19:18:00.126Z,9.45
2023-04-15T19:20:26.737Z,9.42
2023-04-15T19:22:54.560Z,9.43
2023-04-15T19:25:21.280Z,9.44
2023-04-15T19:27:47.726Z,9.43
2023-04-15T19:30:14.344Z,9.38
2023-04-15T19:32:40.993Z,9.39
2023-04-15T19:35:09.981Z,9.38
2023-04-15T19:37:37.830Z,9.37
2023-04-15T19:40:04.913Z,9.33
2023-04-15T19:42:32.464Z,9.30
2023-04-15T19:44:58.927Z,9.31
2023-04-15T19:47:25.513Z,9.28
2023-04-15T19:49:55.457Z,9.25
2023-04-15T19:52:22.357Z,9.22
2023-04-15T19:54:49.057Z,9.23
2023-04-15T19:57:15.685Z,9.17
2023-04-15T19:59:42.195Z,9.18
2023-04-15T20:02:08.919Z,9.18
2023-04-15T20:04:38.290Z,9.16
2023-04-15T20:07:04.855Z,9.12
2023-04-15T20:09:31.309Z,9.11
2023-04-15T20:12:44.992Z,9.09
2023-04-15T20:14:44.441Z,9.09
2023-04-15T20:17:11.165Z,9.08
2023-04-15T20:19:37.622Z,9.12
2023-04-15T20:22:04.123Z,9.12
2023-04-15T20:24:30.673Z,9.08
2023-04-15T20:27:01.928Z,9.05
2023-04-15T20:29:28.425Z,9.07
2023-04-15T20:31:55.674Z,9.04
2023-04-15T20:34:22.110Z,9.04
2023-04-15T20:36:48.617Z,9.02
2023-04-15T20:39:15.067Z,9.03
2023-04-15T20:41:41.557Z,9.02
2023-04-15T20:44:08.013Z,9.01
2023-04-15T20:46:34.508Z,9.02
2023-04-15T20:49:00.997Z,9.02
2023-04-15T20:51:27.540Z,9.03
2023-04-15T20:53:53.975Z,9.03
2023-04-15T20:56:20.520Z,9.06
2023-04-15T20:58:46.977Z,9.07
2023-04-15T21:01:13.658Z,9.07
2023-04-15T21:03:40.395Z,9.07
2023-04-15T21:06:06.952Z,9.08
2023-04-15T21:08:33.395Z,9.07
2023-04-15T21:10:59.900Z,9.07
2023-04-15T21:13:26.468Z,9.08
2023-04-15T21:15:54.200Z,9.07
2023-04-15T21:18:22.008Z,9.06
2023-04-15T21:20:58.118Z,9.07
2023-04-15T21:23:25.321Z,9.08
2023-04-15T21:25:54.918Z,9.09
2023-04-15T21:28:22.404Z,9.09
2023-04-15T21:30:49.540Z,9.11
2023-04-15T21:33:16.684Z,9.12
2023-04-15T21:35:43.191Z,9.12
2023-04-15T21:38:09.691Z,9.11
2023-04-15T21:40:40.291Z,9.11
2023-04-15T21:43:07.678Z,9.09
2023-04-15T21:45:37.173Z,9.09
2023-04-15T21:48:11.808Z,9.09
2023-04-15T21:50:38.318Z,9.12
2023-04-15T21:53:08.450Z,9.18
2023-04-15T21:55:38.385Z,9.27
2023-04-15T21:58:04.937Z,9.29
2023-04-15T22:00:31.576Z,9.24
2023-04-15T22:02:58.233Z,9.20
2023-04-15T22:05:28.845Z,9.19
2023-04-15T22:07:58.162Z,9.16
2023-04-15T22:10:24.635Z,9.20
2023-04-15T22:12:53.887Z,9.21
2023-04-15T22:15:23.254Z,9.17
2023-04-15T22:17:49.930Z,9.13
2023-04-15T22:20:16.921Z,9.14
2023-04-15T22:22:44.745Z,9.11
2023-04-15T22:25:12.017Z,9.08
2023-04-15T22:27:38.573Z,9.09
2023-04-15T22:30:05.970Z,9.18
2023-04-15T22:32:32.485Z,9.18
2023-04-15T22:34:59.012Z,9.16
2023-04-15T22:37:25.565Z,9.17
2023-04-15T22:39:53.300Z,9.14
2023-04-15T22:42:25.313Z,9.13
2023-04-15T22:44:51.733Z,9.14
2023-04-15T22:47:18.828Z,9.13
2023-04-15T22:49:45.666Z,9.09
2023-04-15T22:52:17.084Z,9.09
2023-04-15T22:54:50.801Z,9.07
2023-04-15T22:57:20.485Z,9.09
2023-04-15T22:59:49.981Z,9.08
2023-04-15T23:02:19.349Z,9.15
2023-04-15T23:04:46.260Z,9.16
2023-04-15T23:07:12.918Z,9.24
2023-04-15T23:09:39.963Z,9.19
2023-04-15T23:12:07.197Z,9.12
2023-04-15T23:14:33.731Z,9.13
2023-04-15T23:17:00.248Z,9.12
2023-04-15T23:19:30.880Z,9.15
2023-04-15T23:21:57.441Z,9.11
2023-04-15T23:24:30.268Z,9.08
2023-04-15T23:26:57.184Z,9.13
2023-04-15T23:29:23.679Z,9.19
2023-04-15T23:31:50.266Z,9.20
2023-04-15T23:34:20.242Z,9.17
2023-04-15T23:36:46.915Z,9.21
2023-04-15T23:39:13.446Z,9.14
2023-04-15T23:41:52.113Z,9.12
2023-04-15T23:44:18.913Z,9.13
2023-04-15T23:46:45.439Z,9.11
2023-04-15T23:49:12.059Z,9.07
2023-04-15T23:51:41.350Z,9.06
2023-04-15T23:54:07.833Z,9.08
2023-04-15T23:56:34.310Z,9.02
2023-04-15T23:59:00.812Z,9.09
